miércoles, 12 de mayo de 2010

Accidente A332 en Trípoli Libia










Metars:
HLLT 120620 VRB03KT 2000 BR BKN003 20/18 Q1009
HLLT 120620Z VRB03KT 2000 BR BKN003 20/18 Q1009
HLLT 120550 00000KT 2000 BR BKN003 19/18 Q1009
HLLT 120550Z 00000KT 2000 BR BKN003 19/18 Q1009
HLLT 120520Z VRB03KT 2000 BR BKN003 19/17 Q1009
HLLT 120450Z 26007KT 2000 BR FEW003 19/17 Q1009
HLLT 120425Z 27008KT 2000 BR NSC 19/17 Q1009
HLLT 120420Z 27007KT 5000 BR NSC 19/17 Q1009
HLLT 120350Z VRB01KT 6000 NSC 19/17 Q1008
HLLT 120250Z 35003KT 6000 SKC 19/17 Q1008
HLLT 112350Z 31004KT 7000 SKC 20/17 Q1008
HLLT 112250 32005KT 7000 SKC 21/17 Q1008
HLLT 112250Z 32005KT 7000 SKC 21/17 Q1008
HLLT 112150 34003KT 7000 SKC 22/16 Q1008

Relevant NOTAM:
A0033/10 - INTERFERNCE FROM SIGNAL BEING EXPERIENCED DURING CURRUNT AIRPORT DEVELOPMENT WORK ( TPI VOR SHOULD BE USED WITH CAUTION. 21 FEB 10:47 2010 UNTIL 15 MAY 10:30 2010. CREATED: 21 FEB 11:12 2010






http://www.arabaviation.com/Portals/0/Press%20Release%20Images/Afriqiyah%20Airways.jpg
Comunicado oficial de la empresa

Afriqiyah Flight 771 crash release 2



statement two 12May05 09:00 UTC

We are very sorry to announce the tragic loss of Afriqiyah airways flight 8u 771 from Johannesburg in an accident during landing at Tripoli international airport at 04:00 UTC. (06:00 am Tripoli time) today Wednesday 12 may. We extend our deepest sympathy to the families and friends of the victims the search and rescue mission has now been completed and casualties have been moved to various hospitals. the secretariat of health will issue a statement on the condition of those casualties.

Our prime objective is to prevent accidents from happening and every effort is being done address any failure in our safety management system. at this moment we cannot speculate further and will relay to you all factual information as we receive them.

Parties seeking information on passengers should contact.

From Libya:0213341181

Intrnational:+442033552737



Fuente: El País.com


Un niño de diez años, único superviviente de un accidente de avión en Libia con más de un centenar de víctimas

Las víctimas son 93 pasajeros y once miembros de la tripulación.- El avión, procedente de Johannesburgo, se estrelló poco antes de aterrizar en el aeropuerto de Trípoli

Un niño holandés de diez años es el único superviviente en el accidente de un avión de pasajeros ocurrido esta mañana cerca del aeropuerto de la capital de Libia, Tripoli. En el siniestro del Airbus 330 de la compañía Afriqiyah Airways, ocurrido durante las maniobras de aterrizaje, han muerto 104 personas, 93 pasajeros y once miembros de la tripulación, según fuentes de las fuerzas de seguridad de Libia. Entre las víctimas se contraban 61 holandeses que volvían de vacaciones. Las autoridades holandesas han puesto en marcha un comité de crisis para informar a las familias y para que la embajada holandesa en Tripoli, pueda recaudar más información sobre lo ocurrido, informa Isabel Ferrer.

El avión, de bandera libia, se disponía a realizar una escala en el momento del accidente. Provenía del aeropuerto sudafricano de Johannesburgo y tenía como destino final el aeropuerto de Gatwick, en Londres, según la BBC. Un miembro de seguridad del aeropuerto ha informado que el avión "El avión explotó y se desintegró en el momento del aterrizaje" a las 6.00 (hora local). Un miembro de la seguridad del aeropuerto ha confirmado a la agencia Reuters que un niño holandés de ocho años es el único superviviente del siniestro. "Todos los pasajeros y tripulantes fallecieron excepto un niño (...) había 93 pasajeros y once tripulantes a bordo", según esta fuente. Mohamed Zidan, ministro de Transporte libio, ha confirmado que el niño está bien y ha sido trasladado a un hospital, pero no presenta heridas de importancia.

Entre las razones del accidente se barajan desde fallos técnicos a errores de los pilotos, pero se descarta que la nube volcánica haya tenido ninguna relación, dado que las cenizas procedentes de Islandia que han llegado al norte de Africa sólo han afectado a Marruecos.

La tripulación, compuesta por once personas, era libia y entre los pasajeros hay británicos y sudafricanos. Afriqiya Airlines ha confirmado que el vuelo 8U771 "sufrió un accidente durante el aterrizaje" y ha indicado en su página de Internet que "las autoridades competentes están llevando a cabo una investigación y una misión de rescate". Una portavoz del Ministerio sudafricano de Asuntos Exteriores, Nomfanelo Kota, ha declarado a Reuters que el aparato había salido ayer por la noche de Johannesburgo y que estaba registrado como "desaparecido".

La aerolínea del avión siniestrado es propiedad del Estado libio y se fundó en 2001 para "materializar el sueño de unir directamente a los países africanos entre sí". La compañía afirma en su web que cuenta con "una moderna flota de Airbus", que le cedió inicialmente cinco aparatos y con la que firmó un contrato para la compra de once nuevos aparatos (cinco A-320 y seis A-350) así como el derecho de compra de otros cuatro aparatos del segundo modelo. En su página web han publicado un comunicado en el expresan sus condolencias a los familiares de las víctimas y rechazan "especular" sobre las posibles causas del accidente. Según la compañía, "la operación de búsqueda y rescate ya ha concluido y las víctimas han sido trasladadas a varios hospitales".

El accidente de hoy es segundo más grave ocurrido en Libia en los últimos veinte años. El más trágico tuvo lugar el 22 de diciembre de 1992 cuando se estrelló un Boeing 727 de la compañía aérea libia, en un vuelo de Bengasi a Trípoli, en el que fallecieron sus 158 ocupantes, entre los que había numerosos extranjeros.






Fuentes:

Al Jazeera

Aviation Herald

BBC

CBS

CNN



No hay comentarios.:

Publicar un comentario